Ride Results

Waterloo (16-11-2003)
Ride distance: 80.0 km

Outcomes - Waterloo (16-11-2003)
Division No. of Entries Retired / DNE Completed Withdrawn Ineligible V/O Percentage Completed
HW 8 - 6 - - 2 75.00%
MW 23 - 16 1 - 6 69.57%
LW 7 - 3 1 1 2 42.86%
JN 3 - 3 - - - 100.00%
Totals 41 - 28 2 1 10 68.29%
Results - Waterloo (16-11-2003)
No. Rider Horse Place Time Leg Speeds Total
Km/Hr
H/R bpm
Heavyweight
49r Brian Keep River Heights Rahni 1 4:08:00 20.6, 18.1 19.35 30, 53, 60 (Avg:56)
47r Les Maclean Atbegir Dee Jay 2 5:02:00 17.0, 14.9 15.89 28, 40, 54 (Avg:47)
65r Ken Bradley Phoenix Park Epona 3 5:24:00 15.9, 13.7 14.81 44, 45, 60 (Avg:52)
64r Luke Steele Shadrach 4 5:48:00 13.7, 13.7 13.79 42, 48, 55 (Avg:51)
50r Allan Caslick Alandell Thor 5 6:03:00 12.6, 13.8 13.22 35, 43, 51 (Avg:47)
44r Robert Punicki Ennerdale Just Dandy 6 7:40:00 13.0, 8.6 10.43 38, 52, 52 (Avg:52)
45r Monika Heim Carluke Park Silver Reno Heart Rate L2 0:00:00 14.2, 12.4 - 24, 47, 65 (Avg:56)
48r Jenny Moncur Wyndham Matilda Metabolics non-invasive L1 0:00:00 20.8 - 41, 43 (Avg:43)
Middleweight
87b Vanessa Perry Faraway Lady 1 3:49:00 20.8, 21.0 20.96 45, 47, 59 (Avg:53)
82b Linda Rolfe Kaysand Farrazah 2 4:00:00 20.6, 19.3 20.00 39, 44, 48 (Avg:46)
80b Jo-Anne Francis Tynedale Ali Shamahn 3 5:02:00 17.0, 14.9 15.89 39, 41, 41 (Avg:41)
69b Sue Cavill Koonwarra Kavalier 4 5:10:00 17.0, 14.2 15.48 24, 41, 56 (Avg:48)
73b Kathy Gardam Jaytee Royal Consort 5 5:39:00 15.1, 13.2 14.16 33, 35, 40 (Avg:37)
85b Brooke McMillan Sandine Pale Tuesday 6 5:39:01 15.1, 13.2 14.16 43, 53, 60 (Avg:56)
88b Wendy Bootle Blue Bopp 7 5:48:00 13.7, 13.7 13.79 43, 45, 52 (Avg:48)
84b Jennifer Carland Musical Gully Tenor 8 5:51:00 15.0, 12.4 13.68 36, 46, 52 (Avg:49)
71b Hans Peuker Marybank Celia 9 6:00:00 14.2, 12.4 13.33 40, 41, 55 (Avg:48)
72b Lyndell McGowan Kie-Al Gai Terah 10 6:03:00 12.6, 13.8 13.22 41, 43, 45 (Avg:44)
67b Hayley Grellet Sandine Princess Raj 11 6:06:00 13.0, 13.1 13.11 52, 45, 58 (Avg:51)
74b Mary Hughes Sienna Hi Lighter 12 6:24:00 13.1, 11.8 12.50 35, 39, 49 (Avg:44)
76b Kathy Lowther Ennerdale Cassata 13 6:50:00 13.7, 10.2 11.71 41, 54, 52 (Avg:53)
70b Cathy Preston Black Springs Rhontone 14 6:53:00 12.6, 10.7 11.62 42, 53, 59 (Avg:56)
78b Ross Chisholm Manana Travis 15 7:10:00 12.6, 9.9 11.16 48, 40, 49 (Avg:44)
77b Julie Woods Brieema Shoman 16 7:40:00 13.0, 8.6 10.43 28, 52, 60 (Avg:56)
66b Jean Peever Rashan Lame L2 0:00:00 15.6, 12.3 - 40, 46, 51 (Avg:48)
79b Beverley Rayner-Mason Karumba Nariel Lame L2 0:00:00 16.9, 14.2 - 43, 38, 51 (Avg:44)
68b Sheryl Herbert Clovelly Park Rashaan Lame L1 0:00:00 14.9 - 49, 55 (Avg:55)
81b Beverley Johnson Tanga Park Daoud Heart Rate L1 0:00:00 20.8 - 43, 64 (Avg:64)
75b Jennifer Pitman Meg Lame L1 0:00:00 43.6 - 36, 46 (Avg:46)
86b Vanessa Smith Shadu Dark Passion Lame L1 0:00:00 12.9 - 36, 39 (Avg:39)
83b Michael Gauci Kaysand Khatir Withdrawn P/R 0:00:00 - - 38
Lightweight
138w Kristen Sagar Doran Park Mahagi 1 4:07:00 20.6, 18.3 19.43 40, 52, 47 (Avg:49)
131w Sue Reed Manana Danny 2 5:02:00 17.0, 14.9 15.89 37, 42, 53 (Avg:47)
132w Kasey Thomas Shifting Sands Brave Heart 3 7:22:00 13.2, 9.1 10.86 39, 53, 53 (Avg:53)
1w Jane McLaughlin Gai Promise 0:00:00 11.8, 9.9 - 43, 48, 53 (Avg:50)
134w Kathy Maffett Arabilli Lame L1 0:00:00 12.7 - 32, 42 (Avg:42)
133w Joyce Pilkington Karumba Cassidy Lame L1 0:00:00 13.2 - 33, 45 (Avg:45)
136w Jessica Remfry Ennerdale Meccano Withdrawn L1 0:00:00 - - 36, 39 (Avg:39)
Junior
21y Brittnee Smith Christernee Passion 1 5:47:00 15.3, 12.5 13.83 26, 46, 58 (Avg:52)
24y Shaun Bradley Sweet Mountain River 2 7:23:00 11.8, 9.9 10.84 39, 40, 44 (Avg:42)
23y Sarah McLaughlin Bremervale Promise 2 7:23:00 11.8, 9.9 10.84 39, 47, 50 (Avg:48)